sensor_id;sensor_type;location;lat;lon;timestamp;pressure;altitude;pressure_sealevel;temperature;humidity
75414;BME280;64758;52.122;5.404;2023-02-18T00:01:13;102426.22;;;9.78;100.00
75414;BME280;64758;52.122;5.404;2023-02-18T00:03:40;102423.56;;;9.78;100.00
75414;BME280;64758;52.122;5.404;2023-02-18T00:06:15;102419.25;;;9.77;100.00
75414;BME280;64758;52.122;5.404;2023-02-18T00:08:43;102415.91;;;9.75;100.00
75414;BME280;64758;52.122;5.404;2023-02-18T00:11:11;102421.91;;;9.77;100.00
75414;BME280;64758;52.122;5.404;2023-02-18T00:13:38;102419.25;;;9.77;100.00
75414;BME280;64758;52.122;5.404;2023-02-18T00:16:08;102416.88;;;9.74;100.00
75414;BME280;64758;52.122;5.404;2023-02-18T00:18:36;102425.97;;;9.71;100.00
75414;BME280;64758;52.122;5.404;2023-02-18T00:21:07;102414.78;;;9.68;100.00
75414;BME280;64758;52.122;5.404;2023-02-18T00:23:34;102418.13;;;9.70;100.00
75414;BME280;64758;52.122;5.404;2023-02-18T00:26:04;102412.00;;;9.69;100.00
75414;BME280;64758;52.122;5.404;2023-02-18T00:28:32;102407.81;;;9.67;100.00
75414;BME280;64758;52.122;5.404;2023-02-18T00:30:58;102404.19;;;9.68;100.00
75414;BME280;64758;52.122;5.404;2023-02-18T00:33:25;102410.34;;;9.68;100.00
75414;BME280;64758;52.122;5.404;2023-02-18T00:35:51;102402.78;;;9.64;100.00
75414;BME280;64758;52.122;5.404;2023-02-18T00:38:18;102398.47;;;9.63;100.00
75414;BME280;64758;52.122;5.404;2023-02-18T00:40:44;102406.41;;;9.63;100.00
75414;BME280;64758;52.122;5.404;2023-02-18T00:43:12;102402.09;;;9.62;100.00
75414;BME280;64758;52.122;5.404;2023-02-18T00:45:38;102389.41;;;9.56;100.00
75414;BME280;64758;52.122;5.404;2023-02-18T00:48:05;102397.50;;;9.54;100.00
75414;BME280;64758;52.122;5.404;2023-02-18T00:50:31;102394.69;;;9.56;100.00
75414;BME280;64758;52.122;5.404;2023-02-18T00:52:58;102398.78;;;9.50;100.00
75414;BME280;64758;52.122;5.404;2023-02-18T00:55:25;102390.25;;;9.47;100.00
75414;BME280;64758;52.122;5.404;2023-02-18T00:57:51;102387.75;;;9.45;100.00
75414;BME280;64758;52.122;5.404;2023-02-18T01:00:18;102376.56;;;9.42;100.00
75414;BME280;64758;52.122;5.404;2023-02-18T01:02:45;102374.34;;;9.37;100.00
75414;BME280;64758;52.122;5.404;2023-02-18T01:05:11;102386.50;;;9.30;100.00
75414;BME280;64758;52.122;5.404;2023-02-18T01:07:38;102386.19;;;9.24;100.00
75414;BME280;64758;52.122;5.404;2023-02-18T01:10:05;102393.47;;;9.22;100.00
75414;BME280;64758;52.122;5.404;2023-02-18T01:12:31;102386.91;;;9.16;100.00
75414;BME280;64758;52.122;5.404;2023-02-18T01:14:58;102383.56;;;9.14;100.00
75414;BME280;64758;52.122;5.404;2023-02-18T01:17:24;102382.44;;;9.07;100.00
75414;BME280;64758;52.122;5.404;2023-02-18T01:19:51;102385.50;;;9.03;100.00
75414;BME280;64758;52.122;5.404;2023-02-18T01:22:17;102384.78;;;9.01;100.00
75414;BME280;64758;52.122;5.404;2023-02-18T01:24:44;102390.94;;;9.01;100.00
75414;BME280;64758;52.122;5.404;2023-02-18T01:27:11;102384.38;;;8.96;100.00
75414;BME280;64758;52.122;5.404;2023-02-18T01:29:38;102389.13;;;8.92;100.00
75414;BME280;64758;52.122;5.404;2023-02-18T01:32:04;102390.94;;;8.92;100.00
75414;BME280;64758;52.122;5.404;2023-02-18T01:34:31;102389.41;;;8.89;100.00
75414;BME280;64758;52.122;5.404;2023-02-18T01:36:58;102385.78;;;8.90;100.00
75414;BME280;64758;52.122;5.404;2023-02-18T01:39:25;102371.72;;;8.90;100.00
75414;BME280;64758;52.122;5.404;2023-02-18T01:41:52;102373.50;;;8.89;100.00
75414;BME280;64758;52.122;5.404;2023-02-18T01:44:21;102364.84;;;8.87;100.00
75414;BME280;64758;52.122;5.404;2023-02-18T01:46:48;102356.22;;;8.85;100.00
75414;BME280;64758;52.122;5.404;2023-02-18T01:49:19;102346.75;;;8.83;100.00
75414;BME280;64758;52.122;5.404;2023-02-18T01:51:53;102361.78;;;8.82;100.00
75414;BME280;64758;52.122;5.404;2023-02-18T01:57:01;102345.88;;;8.82;100.00
75414;BME280;64758;52.122;5.404;2023-02-18T01:59:39;102340.75;;;8.81;100.00
75414;BME280;64758;52.122;5.404;2023-02-18T02:02:10;102344.63;;;8.86;100.00
75414;BME280;64758;52.122;5.404;2023-02-18T02:04:38;102344.91;;;8.83;100.00
75414;BME280;64758;52.122;5.404;2023-02-18T02:07:05;102358.16;;;8.83;100.00
75414;BME280;64758;52.122;5.404;2023-02-18T02:09:33;102344.78;;;8.85;100.00
75414;BME280;64758;52.122;5.404;2023-02-18T02:34:36;102265.13;;;8.96;100.00
75414;BME280;64758;52.122;5.404;2023-02-18T02:37:14;102259.69;;;8.97;100.00
75414;BME280;64758;52.122;5.404;2023-02-18T02:39:49;102251.59;;;8.99;100.00
75414;BME280;64758;52.122;5.404;2023-02-18T02:42:38;102242.53;;;9.01;100.00
75414;BME280;64758;52.122;5.404;2023-02-18T02:45:22;102224.97;;;9.00;100.00
75414;BME280;64758;52.122;5.404;2023-02-18T02:48:26;102229.13;;;9.03;100.00
75414;BME280;64758;52.122;5.404;2023-02-18T02:51:29;102217.56;;;9.04;100.00
75414;BME280;64758;52.122;5.404;2023-02-18T02:56:40;102216.28;;;9.08;100.00
75414;BME280;64758;52.122;5.404;2023-02-18T02:59:11;102216.16;;;9.09;100.00
75414;BME280;64758;52.122;5.404;2023-02-18T03:13:03;102185.69;;;9.23;100.00
75414;BME280;64758;52.122;5.404;2023-02-18T03:15:49;102181.94;;;9.25;100.00
75414;BME280;64758;52.122;5.404;2023-02-18T03:18:39;102177.16;;;9.29;100.00
75414;BME280;64758;52.122;5.404;2023-02-18T03:21:12;102182.88;;;9.34;100.00
75414;BME280;64758;52.122;5.404;2023-02-18T03:23:45;102171.16;;;9.36;100.00
75414;BME280;64758;52.122;5.404;2023-02-18T03:26:17;102170.31;;;9.36;100.00
75414;BME280;64758;52.122;5.404;2023-02-18T03:28:44;102148.81;;;9.39;100.00
75414;BME280;64758;52.122;5.404;2023-02-18T03:31:15;102157.44;;;9.41;100.00
75414;BME280;64758;52.122;5.404;2023-02-18T03:33:47;102152.84;;;9.43;100.00
75414;BME280;64758;52.122;5.404;2023-02-18T03:36:17;102147.41;;;9.44;100.00
75414;BME280;64758;52.122;5.404;2023-02-18T03:38:53;102139.28;;;9.46;100.00
75414;BME280;64758;52.122;5.404;2023-02-18T03:41:21;102128.66;;;9.46;100.00
75414;BME280;64758;52.122;5.404;2023-02-18T03:43:52;102149.59;;;9.49;100.00
75414;BME280;64758;52.122;5.404;2023-02-18T03:46:20;102119.44;;;9.50;100.00
75414;BME280;64758;52.122;5.404;2023-02-18T03:48:47;102120.97;;;9.52;100.00
75414;BME280;64758;52.122;5.404;2023-02-18T03:51:13;102116.66;;;9.51;100.00
75414;BME280;64758;52.122;5.404;2023-02-18T03:53:40;102110.38;;;9.52;100.00
75414;BME280;64758;52.122;5.404;2023-02-18T03:56:06;102113.53;;;9.56;100.00
75414;BME280;64758;52.122;5.404;2023-02-18T03:58:34;102100.44;;;9.54;100.00
75414;BME280;64758;52.122;5.404;2023-02-18T04:01:00;102097.31;;;9.59;100.00
75414;BME280;64758;52.122;5.404;2023-02-18T04:03:27;102095.38;;;9.61;100.00
75414;BME280;64758;52.122;5.404;2023-02-18T04:05:53;102087.28;;;9.62;100.00
75414;BME280;64758;52.122;5.404;2023-02-18T04:08:20;102078.75;;;9.59;100.00
75414;BME280;64758;52.122;5.404;2023-02-18T04:10:46;102079.44;;;9.61;100.00
75414;BME280;64758;52.122;5.404;2023-02-18T04:13:13;102076.19;;;9.67;100.00
75414;BME280;64758;52.122;5.404;2023-02-18T04:15:40;102090.16;;;9.69;100.00
75414;BME280;64758;52.122;5.404;2023-02-18T04:18:06;102071.88;;;9.66;100.00
75414;BME280;64758;52.122;5.404;2023-02-18T04:20:32;102066.44;;;9.67;100.00
75414;BME280;64758;52.122;5.404;2023-02-18T04:22:59;102079.41;;;9.70;100.00
75414;BME280;64758;52.122;5.404;2023-02-18T04:25:26;102060.66;;;9.72;100.00
75414;BME280;64758;52.122;5.404;2023-02-18T04:27:52;102060.66;;;9.72;100.00
75414;BME280;64758;52.122;5.404;2023-02-18T04:30:19;102033.16;;;9.73;100.00
75414;BME280;64758;52.122;5.404;2023-02-18T04:32:45;102055.06;;;9.75;100.00
75414;BME280;64758;52.122;5.404;2023-02-18T04:35:12;102056.41;;;9.79;100.00
75414;BME280;64758;52.122;5.404;2023-02-18T04:37:39;102060.06;;;9.78;100.00
75414;BME280;64758;52.122;5.404;2023-02-18T04:40:07;102060.06;;;9.78;100.00
75414;BME280;64758;52.122;5.404;2023-02-18T04:42:34;102058.09;;;9.80;100.00
75414;BME280;64758;52.122;5.404;2023-02-18T04:45:01;102052.66;;;9.81;100.00
75414;BME280;64758;52.122;5.404;2023-02-18T04:47:27;102040.19;;;9.82;100.00
75414;BME280;64758;52.122;5.404;2023-02-18T04:49:54;102043.03;;;9.80;100.00
75414;BME280;64758;52.122;5.404;2023-02-18T04:52:20;102036.03;;;9.79;100.00
75414;BME280;64758;52.122;5.404;2023-02-18T04:54:47;102017.78;;;9.76;100.00
75414;BME280;64758;52.122;5.404;2023-02-18T04:57:14;102020.25;;;9.78;100.00
75414;BME280;64758;52.122;5.404;2023-02-18T04:59:41;102012.59;;;9.75;100.00
75414;BME280;64758;52.122;5.404;2023-02-18T05:02:08;102002.84;;;9.75;100.00
75414;BME280;64758;52.122;5.404;2023-02-18T05:04:34;102006.63;;;9.73;100.00
75414;BME280;64758;52.122;5.404;2023-02-18T05:07:01;102017.09;;;9.74;100.00
75414;BME280;64758;52.122;5.404;2023-02-18T05:09:28;102019.88;;;9.73;100.00
75414;BME280;64758;52.122;5.404;2023-02-18T05:11:54;102020.88;;;9.72;100.00
75414;BME280;64758;52.122;5.404;2023-02-18T05:14:21;102022.69;;;9.71;100.00
75414;BME280;64758;52.122;5.404;2023-02-18T05:16:47;102006.09;;;9.69;100.00
75414;BME280;64758;52.122;5.404;2023-02-18T05:19:15;102018.38;;;9.70;100.00
75414;BME280;64758;52.122;5.404;2023-02-18T05:21:42;102013.22;;;9.69;100.00
75414;BME280;64758;52.122;5.404;2023-02-18T05:24:08;102022.31;;;9.66;100.00
75414;BME280;64758;52.122;5.404;2023-02-18T05:26:35;102020.34;;;9.68;100.00
75414;BME280;64758;52.122;5.404;2023-02-18T05:29:02;102008.50;;;9.63;100.00
75414;BME280;64758;52.122;5.404;2023-02-18T05:31:29;102010.19;;;9.64;100.00
75414;BME280;64758;52.122;5.404;2023-02-18T05:33:55;102017.84;;;9.67;100.00
75414;BME280;64758;52.122;5.404;2023-02-18T05:36:22;102000.25;;;9.66;100.00
75414;BME280;64758;52.122;5.404;2023-02-18T05:38:49;101996.91;;;9.64;100.00
75414;BME280;64758;52.122;5.404;2023-02-18T05:41:15;101989.81;;;9.64;100.00
75414;BME280;64758;52.122;5.404;2023-02-18T05:43:42;101992.97;;;9.68;100.00
75414;BME280;64758;52.122;5.404;2023-02-18T05:46:27;101977.06;;;9.68;100.00
75414;BME280;64758;52.122;5.404;2023-02-18T05:48:53;101986.69;;;9.69;100.00
75414;BME280;64758;52.122;5.404;2023-02-18T05:51:20;101977.75;;;9.70;100.00
75414;BME280;64758;52.122;5.404;2023-02-18T05:53:46;101989.34;;;9.69;100.00
75414;BME280;64758;52.122;5.404;2023-02-18T05:56:13;101987.22;;;9.72;100.00
75414;BME280;64758;52.122;5.404;2023-02-18T05:58:40;101978.41;;;9.72;100.00
75414;BME280;64758;52.122;5.404;2023-02-18T06:01:06;101965.16;;;9.72;100.00
75414;BME280;64758;52.122;5.404;2023-02-18T06:03:33;101981.91;;;9.72;100.00
75414;BME280;64758;52.122;5.404;2023-02-18T06:05:59;101975.47;;;9.75;100.00
75414;BME280;64758;52.122;5.404;2023-02-18T06:08:26;101971.31;;;9.72;100.00
75414;BME280;64758;52.122;5.404;2023-02-18T06:10:53;101969.34;;;9.74;100.00
75414;BME280;64758;52.122;5.404;2023-02-18T06:13:20;101990.41;;;9.76;100.00
75414;BME280;64758;52.122;5.404;2023-02-18T06:15:49;101986.63;;;9.78;100.00
75414;BME280;64758;52.122;5.404;2023-02-18T06:18:16;101979.66;;;9.77;100.00
75414;BME280;64758;52.122;5.404;2023-02-18T06:20:43;101988.41;;;9.78;100.00
75414;BME280;64758;52.122;5.404;2023-02-18T06:23:09;101979.16;;;9.82;100.00
75414;BME280;64758;52.122;5.404;2023-02-18T06:25:37;101977.50;;;9.81;100.00
75414;BME280;64758;52.122;5.404;2023-02-18T06:28:03;101984.47;;;9.82;100.00
75414;BME280;64758;52.122;5.404;2023-02-18T06:30:30;101982.81;;;9.81;100.00
75414;BME280;64758;52.122;5.404;2023-02-18T06:32:57;101982.50;;;9.84;100.00
75414;BME280;64758;52.122;5.404;2023-02-18T06:35:23;101981.50;;;9.85;100.00
75414;BME280;64758;52.122;5.404;2023-02-18T06:37:50;101989.34;;;9.86;100.00
75414;BME280;64758;52.122;5.404;2023-02-18T06:40:16;101986.00;;;9.84;100.00
75414;BME280;64758;52.122;5.404;2023-02-18T06:42:44;101981.50;;;9.85;100.00
75414;BME280;64758;52.122;5.404;2023-02-18T06:45:11;101987.81;;;9.84;100.00
75414;BME280;64758;52.122;5.404;2023-02-18T06:47:37;101989.78;;;9.82;100.00
75414;BME280;64758;52.122;5.404;2023-02-18T06:50:05;101990.78;;;9.81;100.00
75414;BME280;64758;52.122;5.404;2023-02-18T06:52:31;101995.25;;;9.80;100.00
75414;BME280;64758;52.122;5.404;2023-02-18T06:55:00;101988.41;;;9.78;100.00
75414;BME280;64758;52.122;5.404;2023-02-18T06:57:26;101989.41;;;9.77;100.00
75414;BME280;64758;52.122;5.404;2023-02-18T06:59:53;101994.88;;;9.75;100.00
75414;BME280;64758;52.122;5.404;2023-02-18T07:02:19;101975.75;;;9.72;100.00
75414;BME280;64758;52.122;5.404;2023-02-18T07:04:46;101981.06;;;9.72;100.00
75414;BME280;64758;52.122;5.404;2023-02-18T07:07:12;101977.75;;;9.70;100.00
75414;BME280;64758;52.122;5.404;2023-02-18T07:09:39;101967.13;;;9.70;100.00
75414;BME280;64758;52.122;5.404;2023-02-18T07:12:05;101965.63;;;9.67;100.00
75414;BME280;64758;52.122;5.404;2023-02-18T07:14:32;101986.69;;;9.69;100.00
75414;BME280;64758;52.122;5.404;2023-02-18T07:16:58;101968.13;;;9.69;100.00
75414;BME280;64758;52.122;5.404;2023-02-18T07:19:25;101967.97;;;9.70;100.00
75414;BME280;64758;52.122;5.404;2023-02-18T07:21:51;101976.75;;;9.71;100.00
75414;BME280;64758;52.122;5.404;2023-02-18T07:24:19;101961.81;;;9.70;100.00
75414;BME280;64758;52.122;5.404;2023-02-18T07:26:46;101970.75;;;9.69;100.00
75414;BME280;64758;52.122;5.404;2023-02-18T07:29:12;101969.09;;;9.68;100.00
75414;BME280;64758;52.122;5.404;2023-02-18T07:31:39;101974.56;;;9.66;100.00
75414;BME280;64758;52.122;5.404;2023-02-18T07:34:05;101966.63;;;9.66;100.00
75414;BME280;64758;52.122;5.404;2023-02-18T07:36:32;101966.44;;;9.68;100.00
75414;BME280;64758;52.122;5.404;2023-02-18T07:38:58;101974.41;;;9.68;100.00
75414;BME280;64758;52.122;5.404;2023-02-18T07:41:25;101967.28;;;9.68;100.00
75414;BME280;64758;52.122;5.404;2023-02-18T07:43:51;101963.66;;;9.69;100.00
75414;BME280;64758;52.122;5.404;2023-02-18T07:46:18;101957.00;;;9.65;100.00
75414;BME280;64758;52.122;5.404;2023-02-18T07:48:45;101945.69;;;9.63;100.00
75414;BME280;64758;52.122;5.404;2023-02-18T07:51:12;101958.66;;;9.66;100.00
75414;BME280;64758;52.122;5.404;2023-02-18T07:53:39;101966.06;;;9.63;100.00
75414;BME280;64758;52.122;5.404;2023-02-18T07:56:06;101961.44;;;9.65;100.00
75414;BME280;64758;52.122;5.404;2023-02-18T07:58:36;101969.25;;;9.66;100.00
75414;BME280;64758;52.122;5.404;2023-02-18T08:01:07;101965.25;;;9.62;100.00
75414;BME280;64758;52.122;5.404;2023-02-18T08:03:35;101993.44;;;9.63;100.00
75414;BME280;64758;52.122;5.404;2023-02-18T08:06:03;101976.00;;;9.61;100.00
75414;BME280;64758;52.122;5.404;2023-02-18T08:08:31;101985.63;;;9.62;100.00
75414;BME280;64758;52.122;5.404;2023-02-18T08:11:01;101975.47;;;9.57;100.00
75414;BME280;64758;52.122;5.404;2023-02-18T08:13:43;101979.81;;;9.58;100.00
75414;BME280;64758;52.122;5.404;2023-02-18T08:16:12;101981.09;;;9.54;100.00
75414;BME280;64758;52.122;5.404;2023-02-18T08:18:39;101983.75;;;9.54;100.00
75414;BME280;64758;52.122;5.404;2023-02-18T08:21:05;101992.81;;;9.52;100.00
75414;BME280;64758;52.122;5.404;2023-02-18T08:23:32;101992.81;;;9.52;100.00
75414;BME280;64758;52.122;5.404;2023-02-18T08:25:58;101974.41;;;9.50;100.00
75414;BME280;64758;52.122;5.404;2023-02-18T08:28:25;101992.44;;;9.47;100.00
75414;BME280;64758;52.122;5.404;2023-02-18T08:30:53;101991.91;;;9.43;100.00
75414;BME280;64758;52.122;5.404;2023-02-18T08:33:21;101993.03;;;9.41;100.00
75414;BME280;64758;52.122;5.404;2023-02-18T08:35:49;101988.34;;;9.35;100.00
75414;BME280;64758;52.122;5.404;2023-02-18T08:38:16;102006.75;;;9.36;100.00
75414;BME280;64758;52.122;5.404;2023-02-18T08:40:43;102009.03;;;9.31;100.00
75414;BME280;64758;52.122;5.404;2023-02-18T08:43:10;102000.22;;;9.31;100.00
75414;BME280;64758;52.122;5.404;2023-02-18T08:45:38;102010.16;;;9.29;100.00
75414;BME280;64758;52.122;5.404;2023-02-18T08:48:09;101992.88;;;9.25;100.00
75414;BME280;64758;52.122;5.404;2023-02-18T08:50:44;102000.81;;;9.25;100.00
75414;BME280;64758;52.122;5.404;2023-02-18T08:53:10;101987.56;;;9.25;100.00
75414;BME280;64758;52.122;5.404;2023-02-18T08:55:39;101994.69;;;9.24;100.00
75414;BME280;64758;52.122;5.404;2023-02-18T08:58:06;101999.16;;;9.24;100.00
75414;BME280;64758;52.122;5.404;2023-02-18T09:00:32;101997.09;;;9.18;100.00
75414;BME280;64758;52.122;5.404;2023-02-18T09:02:59;102003.25;;;9.18;100.00
75414;BME280;64758;52.122;5.404;2023-02-18T09:05:25;101997.94;;;9.18;100.00
75414;BME280;64758;52.122;5.404;2023-02-18T09:07:52;102011.03;;;9.20;100.00
75414;BME280;64758;52.122;5.404;2023-02-18T09:10:19;102005.22;;;9.16;100.00
75414;BME280;64758;52.122;5.404;2023-02-18T09:12:46;102004.06;;;9.19;100.00
75414;BME280;64758;52.122;5.404;2023-02-18T09:15:12;102006.59;;;9.20;100.00
75414;BME280;64758;52.122;5.404;2023-02-18T09:17:39;102002.78;;;9.23;100.00
75414;BME280;64758;52.122;5.404;2023-02-18T09:20:06;102013.38;;;9.23;100.00
75414;BME280;64758;52.122;5.404;2023-02-18T09:22:33;102016.59;;;9.26;100.00
75414;BME280;64758;52.122;5.404;2023-02-18T09:24:59;102005.69;;;9.29;100.00
75414;BME280;64758;52.122;5.404;2023-02-18T09:27:26;102013.47;;;9.31;100.00
75414;BME280;64758;52.122;5.404;2023-02-18T09:29:52;102009.47;;;9.27;100.00
75414;BME280;64758;52.122;5.404;2023-02-18T09:32:19;101996.19;;;9.27;100.00
75414;BME280;64758;52.122;5.404;2023-02-18T09:34:59;102014.16;;;9.33;100.00
75414;BME280;64758;52.122;5.404;2023-02-18T09:37:25;102021.97;;;9.34;100.00
75414;BME280;64758;52.122;5.404;2023-02-18T09:39:52;102014.56;;;9.38;100.00
75414;BME280;64758;52.122;5.404;2023-02-18T09:42:23;102026.53;;;9.42;100.00
75414;BME280;64758;52.122;5.404;2023-02-18T09:44:55;102037.53;;;9.47;100.00
75414;BME280;64758;52.122;5.404;2023-02-18T09:47:36;102038.38;;;9.47;100.00
75414;BME280;64758;52.122;5.404;2023-02-18T09:50:12;102027.59;;;9.49;100.00
75414;BME280;64758;52.122;5.404;2023-02-18T09:52:43;102036.53;;;9.48;100.00
75414;BME280;64758;52.122;5.404;2023-02-18T09:55:19;102030.94;;;9.51;100.00
75414;BME280;64758;52.122;5.404;2023-02-18T09:57:55;102040.56;;;9.52;100.00
75414;BME280;64758;52.122;5.404;2023-02-18T10:00:44;102042.09;;;9.54;100.00
75414;BME280;64758;52.122;5.404;2023-02-18T10:03:19;102044.56;;;9.56;100.00
75414;BME280;64758;52.122;5.404;2023-02-18T10:06:29;102028.38;;;9.59;100.00
75414;BME280;64758;52.122;5.404;2023-02-18T10:08:54;102043.97;;;9.62;100.00
75414;BME280;64758;52.122;5.404;2023-02-18T10:11:27;102048.97;;;9.65;100.00
75414;BME280;64758;52.122;5.404;2023-02-18T10:13:54;102047.41;;;9.72;100.00
75414;BME280;64758;52.122;5.404;2023-02-18T10:16:23;102048.63;;;9.77;100.00
75414;BME280;64758;52.122;5.404;2023-02-18T10:18:54;102046.19;;;9.84;100.00
75414;BME280;64758;52.122;5.404;2023-02-18T10:21:27;102042.94;;;9.90;100.00
75414;BME280;64758;52.122;5.404;2023-02-18T10:24:13;102043.31;;;9.95;100.00
75414;BME280;64758;52.122;5.404;2023-02-18T10:26:45;102055.84;;;10.02;100.00
75414;BME280;64758;52.122;5.404;2023-02-18T10:29:15;102052.06;;;10.05;100.00
75414;BME280;64758;52.122;5.404;2023-02-18T10:32:05;102062.00;;;10.03;100.00
75414;BME280;64758;52.122;5.404;2023-02-18T10:34:48;102055.94;;;10.10;100.00
75414;BME280;64758;52.122;5.404;2023-02-18T10:40:19;102054.66;;;10.22;100.00
75414;BME280;64758;52.122;5.404;2023-02-18T10:48:49;102080.91;;;10.42;100.00
75414;BME280;64758;52.122;5.404;2023-02-18T10:51:22;102072.31;;;10.48;100.00
75414;BME280;64758;52.122;5.404;2023-02-18T10:53:51;102068.66;;;10.49;99.20
75414;BME280;64758;52.122;5.404;2023-02-18T10:56:38;102057.44;;;10.55;99.75
75414;BME280;64758;52.122;5.404;2023-02-18T10:59:25;102076.53;;;10.59;99.82
75414;BME280;64758;52.122;5.404;2023-02-18T11:01:58;102058.47;;;10.62;100.00
75414;BME280;64758;52.122;5.404;2023-02-18T11:04:33;102057.66;;;10.70;99.67
75414;BME280;64758;52.122;5.404;2023-02-18T11:07:06;102058.47;;;10.62;98.19
75414;BME280;64758;52.122;5.404;2023-02-18T11:09:45;102069.16;;;10.70;98.40
75414;BME280;64758;52.122;5.404;2023-02-18T11:12:21;102048.56;;;10.72;98.27
75414;BME280;64758;52.122;5.404;2023-02-18T11:15:04;102059.44;;;10.87;98.75
75414;BME280;64758;52.122;5.404;2023-02-18T11:17:33;102071.94;;;10.94;97.73
75414;BME280;64758;52.122;5.404;2023-02-18T11:22:46;102037.28;;;11.12;96.92
75414;BME280;64758;52.122;5.404;2023-02-18T11:25:27;102059.19;;;11.06;96.42
75414;BME280;64758;52.122;5.404;2023-02-18T11:28:03;102060.69;;;11.00;97.65
75414;BME280;64758;52.122;5.404;2023-02-18T11:33:20;102070.09;;;10.95;96.79
75414;BME280;64758;52.122;5.404;2023-02-18T11:35:53;102065.28;;;10.90;97.56
75414;BME280;64758;52.122;5.404;2023-02-18T11:38:41;102057.63;;;10.87;98.04
75414;BME280;64758;52.122;5.404;2023-02-18T11:41:16;102082.81;;;10.75;100.00
75414;BME280;64758;52.122;5.404;2023-02-18T11:43:51;102059.16;;;10.64;100.00
75414;BME280;64758;52.122;5.404;2023-02-18T11:46:25;102058.56;;;10.53;100.00
75414;BME280;64758;52.122;5.404;2023-02-18T11:48:53;102065.03;;;10.50;100.00
75414;BME280;64758;52.122;5.404;2023-02-18T11:51:25;102073.50;;;10.54;100.00
75414;BME280;64758;52.122;5.404;2023-02-18T11:56:28;102066.56;;;10.61;100.00
75414;BME280;64758;52.122;5.404;2023-02-18T11:58:56;102072.19;;;10.58;100.00
75414;BME280;64758;52.122;5.404;2023-02-18T12:01:37;102064.09;;;10.59;100.00
75414;BME280;64758;52.122;5.404;2023-02-18T12:04:11;102065.13;;;10.66;100.00
75414;BME280;64758;52.122;5.404;2023-02-18T12:06:51;102061.50;;;10.67;100.00
75414;BME280;64758;52.122;5.404;2023-02-18T12:09:30;102054.25;;;10.77;100.00
75414;BME280;64758;52.122;5.404;2023-02-18T12:12:05;102077.16;;;10.78;100.00
75414;BME280;64758;52.122;5.404;2023-02-18T12:14:34;102058.25;;;10.81;100.00
75414;BME280;64758;52.122;5.404;2023-02-18T12:17:41;102040.31;;;10.83;100.00
75414;BME280;64758;52.122;5.404;2023-02-18T12:20:33;102056.78;;;10.87;99.69
75414;BME280;64758;52.122;5.404;2023-02-18T12:36:15;102056.75;;;11.12;97.49
75414;BME280;64758;52.122;5.404;2023-02-18T12:44:42;102051.81;;;11.25;96.92
75414;BME280;64758;52.122;5.404;2023-02-18T12:52:54;102055.84;;;11.53;96.34
75414;BME280;64758;52.122;5.404;2023-02-18T13:00:37;102064.59;;;11.71;94.45
75414;BME280;64758;52.122;5.404;2023-02-18T13:05:59;102052.78;;;11.73;94.34
75414;BME280;64758;52.122;5.404;2023-02-18T13:08:45;102059.44;;;11.69;94.00
75414;BME280;64758;52.122;5.404;2023-02-18T13:16:37;102057.69;;;11.52;95.33
75414;BME280;64758;52.122;5.404;2023-02-18T13:19:19;102044.88;;;11.48;94.84
75414;BME280;64758;52.122;5.404;2023-02-18T13:21:48;102072.50;;;11.47;94.96
75414;BME280;64758;52.122;5.404;2023-02-18T13:24:25;102066.00;;;11.49;95.05
75414;BME280;64758;52.122;5.404;2023-02-18T13:27:00;102059.84;;;11.49;94.99
75414;BME280;64758;52.122;5.404;2023-02-18T13:29:46;102066.06;;;11.57;94.35
75414;BME280;64758;52.122;5.404;2023-02-18T13:32:38;102055.56;;;11.56;94.55
75414;BME280;64758;52.122;5.404;2023-02-18T13:40:48;102062.19;;;11.52;94.45
75414;BME280;64758;52.122;5.404;2023-02-18T13:43:32;102066.22;;;11.56;94.97
75414;BME280;64758;52.122;5.404;2023-02-18T13:46:13;102060.06;;;11.55;94.57
75414;BME280;64758;52.122;5.404;2023-02-18T13:51:54;102058.56;;;11.61;94.59
75414;BME280;64758;52.122;5.404;2023-02-18T13:56:47;102067.44;;;11.69;94.40
75414;BME280;64758;52.122;5.404;2023-02-18T13:59:17;102065.91;;;11.67;93.58
75414;BME280;64758;52.122;5.404;2023-02-18T14:01:47;102073.91;;;11.67;93.81
75414;BME280;64758;52.122;5.404;2023-02-18T14:09:45;102080.25;;;11.82;92.04
75414;BME280;64758;52.122;5.404;2023-02-18T14:12:38;102079.25;;;11.91;90.66
75414;BME280;64758;52.122;5.404;2023-02-18T14:18:09;102092.59;;;12.07;91.06
75414;BME280;64758;52.122;5.404;2023-02-18T14:31:35;102098.28;;;12.20;89.95
75414;BME280;64758;52.122;5.404;2023-02-18T14:36:48;102099.28;;;12.27;88.91
75414;BME280;64758;52.122;5.404;2023-02-18T14:50:12;102089.63;;;12.18;89.41
75414;BME280;64758;52.122;5.404;2023-02-18T14:52:44;102092.94;;;12.20;89.79
75414;BME280;64758;52.122;5.404;2023-02-18T14:55:25;102082.63;;;12.17;88.86
75414;BME280;64758;52.122;5.404;2023-02-18T14:57:56;102073.63;;;12.18;89.27
75414;BME280;64758;52.122;5.404;2023-02-18T15:00:28;102084.63;;;12.15;88.94
75414;BME280;64758;52.122;5.404;2023-02-18T15:02:59;102090.59;;;12.17;89.62
75414;BME280;64758;52.122;5.404;2023-02-18T15:05:30;102089.94;;;12.15;89.23
75414;BME280;64758;52.122;5.404;2023-02-18T15:08:02;102091.94;;;12.13;89.47
75414;BME280;64758;52.122;5.404;2023-02-18T15:13:12;102079.28;;;12.15;89.38
75414;BME280;64758;52.122;5.404;2023-02-18T15:15:42;102090.13;;;12.13;89.66
75414;BME280;64758;52.122;5.404;2023-02-18T15:18:32;102091.59;;;12.08;90.05
75414;BME280;64758;52.122;5.404;2023-02-18T15:21:01;102093.13;;;12.10;90.61
75414;BME280;64758;52.122;5.404;2023-02-18T15:23:28;102089.13;;;12.06;90.33
75414;BME280;64758;52.122;5.404;2023-02-18T15:25:56;102091.59;;;12.08;90.89
75414;BME280;64758;52.122;5.404;2023-02-18T15:28:26;102103.25;;;12.07;90.57